createdAt,value
2022-10-13T00:01:39.764Z,101856.09
2022-10-13T00:04:08.637Z,101842.22
2022-10-13T00:06:38.252Z,101838.16
2022-10-13T00:09:07.560Z,101837.75
2022-10-13T00:11:38.637Z,101827.25
2022-10-13T00:14:09.322Z,101826.09
2022-10-13T00:16:38.264Z,101818.38
2022-10-13T00:19:14.882Z,101809.84
2022-10-13T00:21:44.009Z,101824.03
2022-10-13T00:24:13.226Z,101814.66
2022-10-13T00:26:44.537Z,101809.84
2022-10-13T00:29:15.470Z,101819.28
2022-10-13T00:31:44.536Z,101818.41
2022-10-13T00:34:14.061Z,101816.97
2022-10-13T00:36:42.879Z,101817.81
2022-10-13T00:39:11.872Z,101810.50
2022-10-13T00:41:43.828Z,101804.75
2022-10-13T00:45:09.785Z,101812.94
2022-10-13T00:47:46.198Z,101806.84
2022-10-13T00:50:21.063Z,101804.34
2022-10-13T00:52:53.936Z,101796.13
2022-10-13T00:55:29.177Z,101788.44
2022-10-13T00:58:05.201Z,101781.31
2022-10-13T01:00:35.933Z,101778.94
2022-10-13T01:03:06.645Z,101776.09
2022-10-13T01:05:36.182Z,101783.09
2022-10-13T01:08:06.628Z,101784.94
2022-10-13T01:10:55.811Z,101784.69
2022-10-13T01:13:36.060Z,101775.25
2022-10-13T01:16:16.360Z,101778.44
2022-10-13T01:18:56.626Z,101779.00
2022-10-13T01:21:53.949Z,101777.66
2022-10-13T01:24:49.750Z,101773.41
2022-10-13T01:28:00.635Z,101777.31
2022-10-13T01:30:48.002Z,101779.00
2022-10-13T01:33:37.190Z,101774.44
2022-10-13T01:36:28.337Z,101771.72
2022-10-13T01:39:21.287Z,101768.13
2022-10-13T01:42:12.052Z,101771.56
2022-10-13T01:44:52.560Z,101774.81
2022-10-13T01:47:27.271Z,101768.56
2022-10-13T01:50:01.372Z,101768.16
2022-10-13T01:52:43.396Z,101766.44
2022-10-13T01:55:17.826Z,101758.38
2022-10-13T01:57:47.968Z,101762.69
2022-10-13T02:00:21.601Z,101748.84
2022-10-13T02:03:08.344Z,101751.72
2022-10-13T02:05:49.887Z,101744.09
2022-10-13T02:08:33.679Z,101735.41
2022-10-13T02:11:16.037Z,101740.19
2022-10-13T02:13:59.924Z,101742.06
2022-10-13T02:16:35.939Z,101742.34
2022-10-13T02:19:10.051Z,101740.03
2022-10-13T02:21:43.754Z,101739.31
2022-10-13T02:24:14.026Z,101729.72
2022-10-13T02:26:45.676Z,101741.28
2022-10-13T02:29:17.617Z,101737.97
2022-10-13T02:31:48.188Z,101732.78
2022-10-13T02:34:18.784Z,101731.00
2022-10-13T02:36:48.360Z,101727.31
2022-10-13T02:39:19.177Z,101722.59
2022-10-13T02:41:48.006Z,101721.44
2022-10-13T02:44:17.750Z,101718.84
2022-10-13T02:46:46.643Z,101716.06
2022-10-13T02:49:16.008Z,101719.16
2022-10-13T02:51:46.746Z,101713.06
2022-10-13T02:54:15.925Z,101710.69
2022-10-13T02:56:45.451Z,101710.16
2022-10-13T02:59:14.517Z,101710.50
2022-10-13T03:01:45.509Z,101712.00
2022-10-13T03:04:14.729Z,101707.09
2022-10-13T03:06:44.082Z,101709.75
2022-10-13T03:09:14.436Z,101702.53
2022-10-13T03:11:43.699Z,101702.75
2022-10-13T03:14:16.122Z,101696.56
2022-10-13T03:16:46.068Z,101694.03
2022-10-13T03:19:15.346Z,101693.13
2022-10-13T03:21:44.228Z,101699.16
2022-10-13T03:24:14.638Z,101693.78
2022-10-13T03:26:43.895Z,101685.03
2022-10-13T03:29:15.131Z,101692.16
2022-10-13T03:31:47.036Z,101686.56
2022-10-13T03:34:24.603Z,101694.28
2022-10-13T03:36:54.008Z,101682.00
2022-10-13T03:39:24.437Z,101687.03
2022-10-13T03:41:53.684Z,101683.44
2022-10-13T03:44:25.824Z,101679.84
2022-10-13T03:46:54.932Z,101680.91
2022-10-13T03:49:25.610Z,101686.13
2022-10-13T03:51:55.596Z,101678.81
2022-10-13T03:54:27.736Z,101684.75
2022-10-13T03:56:56.933Z,101680.69
2022-10-13T03:59:25.898Z,101678.88
2022-10-13T04:01:55.907Z,101668.53
2022-10-13T04:04:27.761Z,101671.69
2022-10-13T04:06:56.835Z,101676.38
2022-10-13T04:09:28.865Z,101674.13
2022-10-13T04:12:00.191Z,101678.81
2022-10-13T04:14:32.475Z,101674.34
2022-10-13T04:17:01.949Z,101668.69
2022-10-13T04:19:31.068Z,101675.47
2022-10-13T04:22:00.184Z,101670.03
2022-10-13T04:24:32.272Z,101670.41
2022-10-13T04:27:03.778Z,101664.41
2022-10-13T04:29:33.014Z,101650.06
2022-10-13T04:32:04.359Z,101653.25
2022-10-13T04:34:33.552Z,101654.19
2022-10-13T04:37:03.006Z,101648.16
2022-10-13T04:39:33.875Z,101644.53
2022-10-13T04:42:03.203Z,101639.88
2022-10-13T04:44:32.682Z,101639.50
2022-10-13T04:47:03.936Z,101629.41
2022-10-13T04:49:32.834Z,101615.00
2022-10-13T04:52:01.775Z,101626.53
2022-10-13T04:54:32.570Z,101618.28
2022-10-13T04:57:01.558Z,101622.63
2022-10-13T04:59:30.595Z,101618.91
2022-10-13T05:01:59.379Z,101608.81
2022-10-13T05:04:28.297Z,101599.72
2022-10-13T05:07:17.135Z,101600.16
2022-10-13T05:09:47.876Z,101617.13
2022-10-13T05:12:18.710Z,101619.13
2022-10-13T05:14:48.796Z,101608.06
2022-10-13T05:17:20.937Z,101621.53
2022-10-13T05:19:51.413Z,101614.84
2022-10-13T05:22:23.505Z,101617.31
2022-10-13T05:24:54.354Z,101610.84
2022-10-13T05:27:23.456Z,101612.66
2022-10-13T05:29:52.480Z,101607.34
2022-10-13T05:32:21.775Z,101594.41
2022-10-13T05:34:51.179Z,101602.13
2022-10-13T05:37:22.610Z,101607.44
2022-10-13T05:39:52.787Z,101605.66
2022-10-13T05:42:22.673Z,101610.91
2022-10-13T05:44:52.391Z,101607.59
2022-10-13T05:47:23.241Z,101615.06
2022-10-13T05:49:52.980Z,101606.97
2022-10-13T05:52:22.901Z,101602.88
2022-10-13T05:54:58.280Z,101601.47
2022-10-13T05:57:33.363Z,101602.56
2022-10-13T06:00:07.520Z,101606.59
2022-10-13T06:02:45.196Z,101601.41
2022-10-13T06:05:21.511Z,101600.28
2022-10-13T06:07:52.406Z,101597.28
2022-10-13T06:10:23.532Z,101599.88
2022-10-13T06:12:52.660Z,101594.47
2022-10-13T06:15:27.078Z,101587.47
2022-10-13T06:17:56.864Z,101591.78
2022-10-13T06:20:27.649Z,101583.44
2022-10-13T06:22:56.934Z,101584.94
2022-10-13T06:25:27.508Z,101578.47
2022-10-13T06:27:57.374Z,101575.59
2022-10-13T06:30:26.442Z,101564.56
2022-10-13T06:32:56.274Z,101573.00
2022-10-13T06:35:25.570Z,101566.28
2022-10-13T06:37:55.251Z,101561.47
2022-10-13T06:40:24.210Z,101562.66
2022-10-13T06:42:54.996Z,101566.50
2022-10-13T06:45:25.410Z,101552.69
2022-10-13T06:47:55.922Z,101561.03
2022-10-13T06:50:25.607Z,101559.16
2022-10-13T06:52:56.917Z,101555.41
2022-10-13T06:55:26.005Z,101554.31
2022-10-13T06:57:56.241Z,101546.06
2022-10-13T07:00:26.068Z,101546.72
2022-10-13T07:02:55.131Z,101539.59
2022-10-13T07:05:24.135Z,101534.56
2022-10-13T07:07:56.711Z,101526.09
2022-10-13T07:10:25.778Z,101520.69
2022-10-13T07:12:56.579Z,101512.44
2022-10-13T07:15:32.705Z,101501.00
2022-10-13T07:18:06.043Z,101499.25
2022-10-13T07:20:35.405Z,101491.97
2022-10-13T07:23:04.837Z,101493.13
2022-10-13T07:25:34.462Z,101483.16
2022-10-13T07:28:05.139Z,101487.91
2022-10-13T07:30:33.943Z,101486.94
2022-10-13T07:33:03.067Z,101479.47
2022-10-13T07:35:32.093Z,101478.91
2022-10-13T07:38:00.888Z,101473.91
2022-10-13T07:40:29.797Z,101469.41
2022-10-13T07:42:59.190Z,101467.44
2022-10-13T07:45:30.239Z,101465.59
2022-10-13T07:47:59.178Z,101464.09
2022-10-13T07:50:31.319Z,101466.72
2022-10-13T07:53:00.096Z,101468.63
2022-10-13T07:55:29.049Z,101461.06
2022-10-13T07:57:58.202Z,101462.56
2022-10-13T08:00:28.543Z,101460.06
2022-10-13T08:02:57.543Z,101449.09
2022-10-13T08:05:26.566Z,101457.78
2022-10-13T08:07:58.281Z,101461.22
2022-10-13T08:10:29.976Z,101458.38
2022-10-13T08:12:59.286Z,101464.47
2022-10-13T08:15:29.957Z,101461.53
2022-10-13T08:17:59.186Z,101456.91
2022-10-13T08:20:40.897Z,101447.31
2022-10-13T08:23:12.095Z,101443.03
2022-10-13T08:25:44.688Z,101458.03
2022-10-13T08:28:20.620Z,101458.66
2022-10-13T08:30:52.504Z,101456.38
2022-10-13T08:33:21.984Z,101461.06
2022-10-13T08:35:51.518Z,101463.63
2022-10-13T08:38:22.923Z,101462.56
2022-10-13T08:40:53.593Z,101463.97
2022-10-13T08:43:26.186Z,101464.97
2022-10-13T08:46:04.013Z,101463.41
2022-10-13T08:48:37.276Z,101474.44
2022-10-13T08:51:09.571Z,101463.13
2022-10-13T08:53:43.225Z,101460.19
2022-10-13T08:56:18.941Z,101449.59
2022-10-13T08:58:50.330Z,101436.94
2022-10-13T09:01:26.463Z,101434.91
2022-10-13T09:04:01.930Z,101438.97
2022-10-13T09:06:38.365Z,101426.78
2022-10-13T09:09:10.901Z,101417.53
2022-10-13T09:11:42.332Z,101412.41
2022-10-13T09:14:14.333Z,101419.66
2022-10-13T09:16:47.487Z,101418.44
2022-10-13T09:19:26.675Z,101413.41
2022-10-13T09:21:59.320Z,101419.34
2022-10-13T09:24:29.958Z,101412.25
2022-10-13T09:27:13.528Z,101418.41
2022-10-13T09:29:44.585Z,101411.25
2022-10-13T09:32:21.857Z,101398.66
2022-10-13T09:34:55.891Z,101402.22
2022-10-13T09:37:28.338Z,101405.84
2022-10-13T09:40:13.422Z,101396.41
2022-10-13T09:42:42.614Z,101403.66
2022-10-13T09:45:18.859Z,101409.50
2022-10-13T09:47:58.451Z,101402.00
2022-10-13T09:50:30.843Z,101402.06
2022-10-13T09:53:27.343Z,101404.44
2022-10-13T09:56:18.520Z,101403.78
2022-10-13T09:58:56.681Z,101401.41
2022-10-13T10:01:31.894Z,101404.41
2022-10-13T10:04:07.706Z,101403.25
2022-10-13T10:06:39.428Z,101388.44
2022-10-13T10:09:34.060Z,101394.94
2022-10-13T10:12:05.484Z,101381.72
2022-10-13T10:14:37.962Z,101375.09
2022-10-13T10:17:21.907Z,101369.13
2022-10-13T10:20:12.648Z,101372.13
2022-10-13T10:22:54.406Z,101367.34
2022-10-13T10:25:39.805Z,101369.00
2022-10-13T10:28:54.598Z,101374.16
2022-10-13T10:31:45.207Z,101371.13
2022-10-13T10:34:37.638Z,101375.44
2022-10-13T10:37:29.673Z,101372.22
2022-10-13T10:40:17.352Z,101381.91
2022-10-13T10:43:16.602Z,101379.88
2022-10-13T10:45:49.384Z,101367.69
2022-10-13T10:48:24.676Z,101363.72
2022-10-13T10:50:55.634Z,101357.44
2022-10-13T10:53:38.702Z,101348.47
2022-10-13T10:56:21.296Z,101350.03
2022-10-13T10:59:06.899Z,101342.63
2022-10-13T11:01:47.698Z,101345.06
2022-10-13T11:04:42.504Z,101341.13
2022-10-13T11:07:36.540Z,101342.59
2022-10-13T11:10:23.597Z,101335.81
2022-10-13T11:13:22.642Z,101335.19
2022-10-13T11:15:51.706Z,101326.38
2022-10-13T11:19:06.639Z,101335.22
2022-10-13T11:22:17.182Z,101334.63
2022-10-13T11:24:57.206Z,101346.53
2022-10-13T11:27:44.708Z,101341.25
2022-10-13T11:30:50.272Z,101336.56
2022-10-13T11:33:58.977Z,101335.25
2022-10-13T11:36:57.664Z,101329.06
2022-10-13T11:40:05.362Z,101332.03
2022-10-13T11:43:19.345Z,101327.66
2022-10-13T11:46:07.875Z,101326.09
2022-10-13T11:49:33.145Z,101316.72
2022-10-13T11:52:48.870Z,101310.00
2022-10-13T11:55:25.028Z,101311.41
2022-10-13T11:58:11.360Z,101305.84
2022-10-13T12:00:50.833Z,101300.47
2022-10-13T12:03:29.055Z,101301.88
2022-10-13T12:06:03.755Z,101290.50
2022-10-13T12:08:37.406Z,101283.63
2022-10-13T12:11:10.352Z,101286.50
2022-10-13T12:13:41.055Z,101277.09
2022-10-13T12:16:10.440Z,101278.78
2022-10-13T12:18:41.985Z,101288.47
2022-10-13T12:21:15.060Z,101285.34
2022-10-13T12:23:47.508Z,101272.34
2022-10-13T12:26:20.031Z,101264.56
2022-10-13T12:28:53.999Z,101261.47
2022-10-13T12:31:26.835Z,101265.97
2022-10-13T12:33:57.640Z,101261.41
2022-10-13T12:36:32.174Z,101259.81
2022-10-13T12:39:05.804Z,101255.88
2022-10-13T12:41:38.688Z,101264.94
2022-10-13T12:44:16.367Z,101243.81
2022-10-13T12:46:47.697Z,101245.50
2022-10-13T12:52:00.252Z,101243.84
2022-10-13T12:54:34.105Z,101243.72
2022-10-13T12:57:07.987Z,101232.47
2022-10-13T12:59:44.625Z,101242.31
2022-10-13T13:02:26.120Z,101244.03
2022-10-13T13:04:55.579Z,101231.13
2022-10-13T13:07:33.791Z,101230.13
2022-10-13T13:10:18.832Z,101231.81
2022-10-13T13:12:50.707Z,101229.56
2022-10-13T13:15:35.224Z,101234.16
2022-10-13T13:18:36.316Z,101231.91
2022-10-13T13:21:08.509Z,101233.22
2022-10-13T13:23:37.513Z,101225.16
2022-10-13T13:26:15.547Z,101224.50
2022-10-13T13:28:50.270Z,101228.91
2022-10-13T13:31:23.647Z,101216.47
2022-10-13T13:33:53.108Z,101218.25
2022-10-13T13:36:24.956Z,101212.84
2022-10-13T13:38:55.359Z,101213.88
2022-10-13T13:41:28.099Z,101210.94
2022-10-13T13:43:57.176Z,101216.47
2022-10-13T13:46:29.459Z,101221.88
2022-10-13T13:48:58.242Z,101227.44
2022-10-13T13:51:26.916Z,101232.94
2022-10-13T13:53:56.776Z,101234.06
2022-10-13T13:56:26.783Z,101225.09
2022-10-13T13:58:55.741Z,101234.16
2022-10-13T14:01:26.433Z,101228.81
2022-10-13T14:03:56.850Z,101224.66
2022-10-13T14:06:25.756Z,101226.06
2022-10-13T14:08:54.987Z,101225.63
2022-10-13T14:11:23.739Z,101224.66
2022-10-13T14:13:52.772Z,101226.84
2022-10-13T14:16:21.673Z,101223.72
2022-10-13T14:18:53.111Z,101216.66
2022-10-13T14:21:23.164Z,101218.44
2022-10-13T14:23:52.081Z,101217.28
2022-10-13T14:26:20.772Z,101211.72
2022-10-13T14:28:49.559Z,101223.91
2022-10-13T14:31:19.543Z,101221.59
2022-10-13T14:33:54.009Z,101234.06
2022-10-13T14:36:25.258Z,101234.66
2022-10-13T14:38:55.086Z,101230.97
2022-10-13T14:41:24.114Z,101234.28
2022-10-13T14:43:56.053Z,101232.84
2022-10-13T14:46:25.784Z,101230.00
2022-10-13T14:48:58.992Z,101233.44
2022-10-13T14:51:29.630Z,101230.50
2022-10-13T14:53:58.445Z,101233.34
2022-10-13T14:56:30.329Z,101226.41
2022-10-13T14:59:02.654Z,101237.22
2022-10-13T15:01:33.495Z,101232.97
2022-10-13T15:04:02.974Z,101229.25
2022-10-13T15:06:34.448Z,101232.53
2022-10-13T15:09:03.188Z,101223.44
2022-10-13T15:11:32.380Z,101225.28
2022-10-13T15:14:02.081Z,101224.28
2022-10-13T15:16:33.649Z,101232.69
2022-10-13T15:19:04.545Z,101229.72
2022-10-13T15:21:35.781Z,101225.56
2022-10-13T15:24:05.443Z,101233.97
2022-10-13T15:26:35.055Z,101228.97
2022-10-13T15:29:05.488Z,101224.00
2022-10-13T15:31:34.223Z,101227.84
2022-10-13T15:34:03.372Z,101230.09
2022-10-13T15:36:33.897Z,101229.53
2022-10-13T15:39:03.091Z,101227.56
2022-10-13T15:41:34.409Z,101230.38
2022-10-13T15:44:03.535Z,101229.78
2022-10-13T15:46:33.343Z,101226.31
2022-10-13T15:49:04.729Z,101219.91
2022-10-13T15:51:35.390Z,101218.47
2022-10-13T15:54:42.350Z,101217.22
2022-10-13T15:57:11.181Z,101211.38
2022-10-13T15:59:43.694Z,101215.63
2022-10-13T16:02:21.754Z,101216.88
2022-10-13T16:04:51.455Z,101219.84
2022-10-13T16:07:25.298Z,101216.66
2022-10-13T16:09:54.251Z,101218.34
2022-10-13T16:12:25.654Z,101218.72
2022-10-13T16:14:54.717Z,101223.00
2022-10-13T16:17:25.434Z,101220.84
2022-10-13T16:19:54.916Z,101219.25
2022-10-13T16:22:26.202Z,101229.31
2022-10-13T16:24:55.153Z,101228.84
2022-10-13T16:27:25.041Z,101223.75
2022-10-13T16:29:57.300Z,101221.19
2022-10-13T16:32:38.871Z,101226.69
2022-10-13T16:35:09.812Z,101211.94
2022-10-13T16:37:40.491Z,101217.22
2022-10-13T16:40:11.710Z,101215.66
2022-10-13T16:42:42.132Z,101215.16
2022-10-13T16:45:14.246Z,101214.59
2022-10-13T16:47:42.819Z,101211.91
2022-10-13T16:50:12.619Z,101216.72
2022-10-13T16:52:43.807Z,101210.59
2022-10-13T16:55:12.940Z,101214.06
2022-10-13T16:57:41.729Z,101211.38
2022-10-13T17:00:15.420Z,101218.75
2022-10-13T17:02:44.766Z,101208.19
2022-10-13T17:05:14.564Z,101215.81
2022-10-13T17:07:45.695Z,101218.06
2022-10-13T17:10:15.371Z,101212.41
2022-10-13T17:12:48.917Z,101215.50
2022-10-13T17:15:18.858Z,101216.81
2022-10-13T17:17:50.690Z,101215.56
2022-10-13T17:20:19.888Z,101216.16
2022-10-13T17:22:50.102Z,101222.53
2022-10-13T17:25:19.811Z,101225.13
2022-10-13T17:27:48.917Z,101219.63
2022-10-13T17:30:18.721Z,101221.69
2022-10-13T17:32:48.057Z,101219.75
2022-10-13T17:35:18.156Z,101220.13
2022-10-13T17:37:52.120Z,101220.97
2022-10-13T17:40:22.273Z,101224.38
2022-10-13T17:42:51.506Z,101226.09
2022-10-13T17:45:20.971Z,101215.19
2022-10-13T17:47:53.675Z,101224.72
2022-10-13T17:50:23.451Z,101210.31
2022-10-13T17:52:55.206Z,101211.91
2022-10-13T17:55:24.475Z,101214.72
2022-10-13T17:57:53.329Z,101212.75
2022-10-13T18:00:24.083Z,101211.81
2022-10-13T18:02:52.886Z,101206.53
2022-10-13T18:05:22.287Z,101212.75
2022-10-13T18:07:58.404Z,101208.47
2022-10-13T18:10:27.776Z,101202.03
2022-10-13T18:12:57.035Z,101206.72
2022-10-13T18:15:26.257Z,101208.53
2022-10-13T18:17:55.736Z,101212.56
2022-10-13T18:20:26.252Z,101202.91
2022-10-13T18:22:56.618Z,101206.31
2022-10-13T18:25:25.496Z,101203.22
2022-10-13T18:27:54.471Z,101204.66
2022-10-13T18:30:23.956Z,101195.97
2022-10-13T18:32:56.117Z,101198.66
2022-10-13T18:35:29.927Z,101201.50
2022-10-13T18:38:08.481Z,101197.81
2022-10-13T18:40:37.977Z,101201.75
2022-10-13T18:43:22.821Z,101205.94
2022-10-13T18:45:51.546Z,101205.19
2022-10-13T18:48:20.802Z,101206.91
2022-10-13T18:50:49.915Z,101201.22
2022-10-13T18:53:45.743Z,101198.81
2022-10-13T18:56:18.012Z,101198.81
2022-10-13T18:58:48.321Z,101200.25
2022-10-13T19:01:22.002Z,101199.50
2022-10-13T19:03:55.705Z,101194.66
2022-10-13T19:06:34.772Z,101195.19
2022-10-13T19:09:08.905Z,101195.38
2022-10-13T19:11:39.431Z,101195.66
2022-10-13T19:14:14.347Z,101196.78
2022-10-13T19:16:45.791Z,101201.22
2022-10-13T19:19:15.580Z,101191.41
2022-10-13T19:21:45.340Z,101188.25
2022-10-13T19:24:19.253Z,101189.66
2022-10-13T19:26:47.988Z,101191.06
2022-10-13T19:29:17.423Z,101192.91
2022-10-13T19:31:47.711Z,101191.38
2022-10-13T19:34:17.104Z,101194.19
2022-10-13T19:36:51.539Z,101195.16
2022-10-13T19:39:25.859Z,101198.16
2022-10-13T19:41:58.615Z,101198.53
2022-10-13T19:44:29.170Z,101199.50
2022-10-13T19:46:58.295Z,101202.22
2022-10-13T19:49:27.678Z,101202.63
2022-10-13T19:51:57.205Z,101202.28
2022-10-13T19:54:32.916Z,101200.84
2022-10-13T19:57:03.147Z,101199.88
2022-10-13T19:59:38.332Z,101201.72
2022-10-13T20:02:07.610Z,101195.66
2022-10-13T20:04:36.908Z,101197.88
2022-10-13T20:07:08.871Z,101206.72
2022-10-13T20:09:39.380Z,101200.56
2022-10-13T20:12:09.136Z,101203.75
2022-10-13T20:14:38.590Z,101195.19
2022-10-13T20:17:07.832Z,101198.06
2022-10-13T20:19:38.464Z,101210.84
2022-10-13T20:22:07.918Z,101209.41
2022-10-13T20:24:36.715Z,101206.72
2022-10-13T20:27:09.355Z,101203.16
2022-10-13T20:29:38.764Z,101206.47
2022-10-13T20:32:08.210Z,101203.44
2022-10-13T20:34:42.509Z,101205.97
2022-10-13T20:37:12.446Z,101206.13
2022-10-13T20:39:41.811Z,101207.69
2022-10-13T20:42:12.734Z,101213.69
2022-10-13T20:44:45.032Z,101209.41
2022-10-13T20:47:13.483Z,101206.47
2022-10-13T20:49:44.586Z,101211.00
2022-10-13T20:52:16.261Z,101207.72
2022-10-13T20:54:45.855Z,101209.56
2022-10-13T20:57:16.392Z,101205.56
2022-10-13T20:59:45.192Z,101204.59
2022-10-13T21:02:17.266Z,101210.09
2022-10-13T21:04:46.013Z,101215.38
2022-10-13T21:07:14.851Z,101207.81
2022-10-13T21:09:44.662Z,101210.63
2022-10-13T21:12:13.571Z,101213.19
2022-10-13T21:14:44.663Z,101211.22
2022-10-13T21:17:13.541Z,101212.22
2022-10-13T21:19:45.521Z,101210.75
2022-10-13T21:22:14.491Z,101211.16
2022-10-13T21:24:45.038Z,101208.66
2022-10-13T21:27:14.142Z,101203.63
2022-10-13T21:29:45.289Z,101209.44
2022-10-13T21:32:14.266Z,101210.22
2022-10-13T21:34:48.047Z,101204.16
2022-10-13T21:37:17.286Z,101206.47
2022-10-13T21:39:48.420Z,101209.22
2022-10-13T21:42:17.998Z,101213.91
2022-10-13T21:44:48.331Z,101212.97
2022-10-13T21:47:17.067Z,101218.88
2022-10-13T21:49:45.818Z,101209.34
2022-10-13T21:52:14.956Z,101213.28
2022-10-13T21:54:43.834Z,101211.78
2022-10-13T21:57:13.254Z,101212.91
2022-10-13T21:59:42.226Z,101210.97
2022-10-13T22:02:12.816Z,101209.97
2022-10-13T22:04:42.550Z,101215.97
2022-10-13T22:07:11.669Z,101213.75
2022-10-13T22:09:40.580Z,101216.44
2022-10-13T22:12:10.455Z,101218.16
2022-10-13T22:14:39.145Z,101212.38
2022-10-13T22:17:08.931Z,101216.69
2022-10-13T22:19:39.397Z,101213.72
2022-10-13T22:22:08.584Z,101211.75
2022-10-13T22:24:37.490Z,101208.09
2022-10-13T22:27:06.224Z,101207.09
2022-10-13T22:29:35.433Z,101206.09
2022-10-13T22:32:04.068Z,101201.97
2022-10-13T22:34:33.055Z,101197.81
2022-10-13T22:37:05.262Z,101202.47
2022-10-13T22:39:34.789Z,101200.63
2022-10-13T22:42:04.125Z,101201.72
2022-10-13T22:44:35.234Z,101196.00
2022-10-13T22:47:05.377Z,101201.63
2022-10-13T22:49:34.387Z,101194.94
2022-10-13T22:52:04.841Z,101197.84
2022-10-13T22:54:35.025Z,101191.88
2022-10-13T22:57:04.326Z,101196.63
2022-10-13T22:59:33.398Z,101198.63
2022-10-13T23:02:02.552Z,101198.34
2022-10-13T23:04:31.672Z,101190.03
2022-10-13T23:07:00.492Z,101197.84
2022-10-13T23:09:32.276Z,101202.38
2022-10-13T23:12:04.396Z,101196.13
2022-10-13T23:14:33.274Z,101192.59
2022-10-13T23:17:03.102Z,101187.69
2022-10-13T23:19:31.992Z,101190.66
2022-10-13T23:22:00.995Z,101188.72
2022-10-13T23:24:34.780Z,101197.66
2022-10-13T23:27:06.908Z,101189.81
2022-10-13T23:29:36.550Z,101190.66
2022-10-13T23:32:09.786Z,101193.09
2022-10-13T23:34:42.687Z,101188.81
2022-10-13T23:37:12.289Z,101185.50
2022-10-13T23:39:42.795Z,101180.97
2022-10-13T23:42:12.165Z,101184.69
2022-10-13T23:44:42.119Z,101184.78
2022-10-13T23:47:11.311Z,101177.56
2022-10-13T23:49:47.404Z,101182.69
2022-10-13T23:52:16.608Z,101182.09
2022-10-13T23:54:47.298Z,101177.19
2022-10-13T23:57:16.774Z,101176.81
2022-10-13T23:59:47.406Z,101179.97
